Time;durP1;ratioP1;P1;durP2;ratioP2;P2;SDS_P1;SDS_P2;PMS_P1;PMS_P2;Temp;Humidity;BMP_temperature;BMP_pressure;BME280_temperature;BME280_humidity;BME280_pressure;Samples;Min_cycle;Max_cycle;Signal;HPM_P1;HPM_P2
2022/09/15 00:01:15;;;;;;;6.97;5.70;;;;;;;-148.82;100.00;60434.72;5008631;28;20223;-49
2022/09/15 00:03:43;;;;;;;7.03;5.60;;;;;;;-148.82;100.00;60434.72;5011595;28;20320;-50
2022/09/15 00:06:12;;;;;;;8.70;5.50;;;;;;;-148.82;100.00;60434.72;4994560;28;20305;-48
2022/09/15 00:08:41;;;;;;;6.93;5.40;;;;;;;-148.82;100.00;60434.72;5006381;28;20204;-48
2022/09/15 00:11:11;;;;;;;6.67;5.20;;;;;;;-148.82;100.00;60434.72;5008317;28;20220;-47
2022/09/15 00:13:40;;;;;;;9.67;5.90;;;;;;;-148.82;100.00;60434.72;5006576;28;20243;-47
2022/09/15 00:16:10;;;;;;;8.73;5.33;;;;;;;-148.82;100.00;60434.72;4963451;28;20307;-52
2022/09/15 00:18:44;;;;;;;8.10;5.67;;;;;;;-148.82;100.00;60434.72;4983205;28;20208;-55
2022/09/15 00:21:13;;;;;;;7.27;5.10;;;;;;;-148.82;100.00;60434.72;5006853;28;20584;-51
2022/09/15 00:23:42;;;;;;;6.07;5.57;;;;;;;-148.82;100.00;60434.72;4987452;28;20393;-51
2022/09/15 00:26:13;;;;;;;5.97;5.03;;;;;;;-148.82;100.00;60434.72;5010573;28;20204;-48
2022/09/15 00:28:42;;;;;;;7.23;5.53;;;;;;;-148.82;100.00;60434.72;5005009;28;20315;-50
2022/09/15 00:31:12;;;;;;;7.17;5.20;;;;;;;-148.82;100.00;60434.72;4961971;28;20606;-49
2022/09/15 00:33:41;;;;;;;9.27;4.90;;;;;;;-148.82;100.00;60434.72;5001558;28;20220;-55
2022/09/15 00:36:13;;;;;;;7.63;5.20;;;;;;;-148.82;100.00;60434.72;5006199;28;20476;-55
2022/09/15 00:38:41;;;;;;;8.87;4.77;;;;;;;-148.82;100.00;60434.72;4986305;28;20200;-50
2022/09/15 00:41:11;;;;;;;5.77;5.20;;;;;;;-148.82;100.00;60434.72;5007857;28;20607;-53
2022/09/15 00:43:48;;;;;;;5.80;5.40;;;;;;;-148.82;100.00;60434.72;5003471;28;20337;-48
2022/09/15 00:46:18;;;;;;;5.60;5.13;;;;;;;-148.82;100.00;60434.72;5007365;28;20204;-53
2022/09/15 00:48:50;;;;;;;6.67;4.90;;;;;;;-148.82;100.00;60434.72;4960891;28;20391;-52
2022/09/15 00:55:05;;;;;;;5.53;5.03;;;;;;;-148.82;100.00;60434.72;5009394;28;20223;-50
2022/09/15 00:57:53;;;;;;;6.20;5.60;;;;;;;-148.82;100.00;60434.72;5006903;28;20577;-53
2022/09/15 01:00:24;;;;;;;5.93;5.43;;;;;;;-148.82;100.00;60434.72;5005735;28;20735;-54
2022/09/15 01:02:52;;;;;;;6.30;5.70;;;;;;;-148.82;100.00;60434.72;4956482;28;20232;-52
2022/09/15 01:05:25;;;;;;;5.40;4.90;;;;;;;-148.82;100.00;60434.72;5010166;28;20212;-52
2022/09/15 01:07:56;;;;;;;6.93;5.23;;;;;;;-148.82;100.00;60434.72;4979044;28;20236;-52
2022/09/15 01:10:28;;;;;;;5.93;5.07;;;;;;;-148.82;100.00;60434.72;5009087;28;20408;-53
2022/09/15 01:12:58;;;;;;;7.77;4.67;;;;;;;-148.82;100.00;60434.72;5010701;28;20282;-52
2022/09/15 01:15:32;;;;;;;9.20;5.17;;;;;;;-148.82;100.00;60434.72;5010896;28;20726;-53
2022/09/15 01:18:10;;;;;;;5.40;4.90;;;;;;;-148.82;100.00;60434.72;4955407;28;20534;-55
2022/09/15 01:20:57;;;;;;;5.73;4.73;;;;;;;-148.82;100.00;60434.72;4901149;28;20389;-52
2022/09/15 01:23:45;;;;;;;6.77;5.00;;;;;;;-148.82;100.00;60434.72;5006072;28;20348;-51
2022/09/15 01:26:41;;;;;;;4.90;4.50;;;;;;;-148.82;100.00;60434.72;4988354;28;20264;-51
2022/09/15 01:29:52;;;;;;;5.27;4.80;;;;;;;-148.82;100.00;60434.72;5013175;28;20288;-53
2022/09/15 01:35:19;;;;;;;6.97;5.27;;;;;;;-148.82;100.00;60434.72;4899976;28;20395;-51
2022/09/15 01:37:51;;;;;;;4.83;4.40;;;;;;;-148.82;100.00;60434.72;4919067;28;20317;-55
2022/09/15 01:40:21;;;;;;;5.83;4.73;;;;;;;-148.82;100.00;60434.72;4930526;28;20206;-55
2022/09/15 01:42:50;;;;;;;5.17;4.77;;;;;;;-148.82;100.00;60434.72;4950139;28;20265;-52
2022/09/15 01:45:23;;;;;;;6.23;4.57;;;;;;;-148.82;100.00;60434.72;4925785;28;20697;-52
2022/09/15 01:47:54;;;;;;;7.53;4.77;;;;;;;-148.82;100.00;60434.72;4948047;28;20427;-52
2022/09/15 01:50:26;;;;;;;7.77;5.30;;;;;;;-148.82;100.00;60434.72;4901755;28;20242;-52
2022/09/15 01:52:56;;;;;;;10.43;5.50;;;;;;;-148.82;100.00;60434.72;4931884;28;20457;-53
2022/09/15 01:55:31;;;;;;;5.90;5.30;;;;;;;-148.82;100.00;60434.72;4950575;28;20213;-56
2022/09/15 01:58:00;;;;;;;5.90;4.97;;;;;;;-148.82;100.00;60434.72;4946974;28;20542;-56
2022/09/15 02:00:32;;;;;;;5.80;5.30;;;;;;;-148.82;100.00;60434.72;4936169;28;20601;-52
2022/09/15 02:03:03;;;;;;;5.93;5.37;;;;;;;-148.82;100.00;60434.72;4947932;28;20265;-57
2022/09/15 02:05:34;;;;;;;8.40;5.23;;;;;;;-148.82;100.00;60434.72;4916426;28;20676;-53
2022/09/15 02:08:08;;;;;;;5.23;4.83;;;;;;;-148.82;100.00;60434.72;5011846;28;20293;-52
2022/09/15 02:10:39;;;;;;;5.77;5.13;;;;;;;-148.82;100.00;60434.72;4989551;28;20240;-54
2022/09/15 02:13:15;;;;;;;7.67;5.70;;;;;;;-148.82;100.00;60434.72;5013216;28;20787;-54
2022/09/15 02:15:50;;;;;;;6.07;5.47;;;;;;;-148.82;100.00;60434.72;4983538;28;22743;-52
2022/09/15 02:18:24;;;;;;;6.73;4.97;;;;;;;-148.82;100.00;60434.72;5013240;28;20519;-53
2022/09/15 02:20:57;;;;;;;6.70;5.37;;;;;;;-148.82;100.00;60434.72;5010456;28;20335;-54
2022/09/15 02:23:28;;;;;;;8.40;5.17;;;;;;;-148.82;100.00;60434.72;4955850;28;20606;-52
2022/09/15 02:26:03;;;;;;;8.50;5.00;;;;;;;-148.82;100.00;60434.72;4991473;28;21497;-52
2022/09/15 02:28:34;;;;;;;5.77;5.17;;;;;;;-148.82;100.00;60434.72;5009196;28;20548;-54
2022/09/15 02:31:06;;;;;;;4.97;4.43;;;;;;;-148.82;100.00;60434.72;5010953;28;20339;-53
2022/09/15 02:33:37;;;;;;;6.07;5.57;;;;;;;-148.82;100.00;60434.72;4983803;28;20224;-54
2022/09/15 02:36:06;;;;;;;5.20;4.70;;;;;;;-148.82;100.00;60434.72;5012809;28;20299;-56
2022/09/15 02:38:38;;;;;;;6.10;5.10;;;;;;;-148.82;100.00;60434.72;4953588;28;20768;-55
2022/09/15 02:41:07;;;;;;;8.63;6.13;;;;;;;-148.82;100.00;60434.72;5010931;28;20262;-52
2022/09/15 02:43:35;;;;;;;5.73;5.20;;;;;;;-148.82;100.00;60434.72;4988986;28;20674;-54
2022/09/15 02:46:05;;;;;;;6.50;5.57;;;;;;;-148.82;100.00;60434.72;5012037;28;20296;-57
2022/09/15 02:48:34;;;;;;;6.87;4.73;;;;;;;-148.82;100.00;60434.72;4984789;28;20736;-56
2022/09/15 02:51:03;;;;;;;7.33;5.10;;;;;;;-148.82;100.00;60434.72;4977801;28;20208;-54
2022/09/15 02:53:31;;;;;;;6.63;5.37;;;;;;;-148.82;100.00;60434.72;4955237;28;20497;-59
2022/09/15 02:56:00;;;;;;;6.50;5.57;;;;;;;-148.82;100.00;60434.72;5008458;28;21780;-52
2022/09/15 02:58:29;;;;;;;5.47;4.77;;;;;;;-148.82;100.00;60434.72;4989547;28;20446;-57
2022/09/15 03:00:58;;;;;;;5.87;5.27;;;;;;;-148.82;100.00;60434.72;5008121;28;20200;-55
2022/09/15 03:03:28;;;;;;;8.93;5.40;;;;;;;-148.82;100.00;60434.72;4982645;28;20396;-54
2022/09/15 03:06:15;;;;;;;6.67;4.90;;;;;;;-148.82;100.00;60434.72;5010229;28;20225;-58
2022/09/15 03:08:45;;;;;;;8.27;5.63;;;;;;;-148.82;100.00;60434.72;4957164;28;20218;-56
2022/09/15 03:11:14;;;;;;;6.00;5.00;;;;;;;-148.82;100.00;60434.72;5004568;28;20341;-57
2022/09/15 03:13:42;;;;;;;7.27;5.00;;;;;;;-148.82;100.00;60434.72;4988019;28;20333;-53
2022/09/15 03:16:11;;;;;;;4.97;4.47;;;;;;;-148.82;100.00;60434.72;5008469;28;20246;-57
2022/09/15 03:18:42;;;;;;;5.10;4.70;;;;;;;-148.82;100.00;60434.72;4983762;28;20307;-56
2022/09/15 03:21:12;;;;;;;5.90;4.57;;;;;;;-148.82;100.00;60434.72;5006169;28;20210;-53
2022/09/15 03:23:41;;;;;;;6.93;5.53;;;;;;;-148.82;100.00;60434.72;4957412;28;20264;-54
2022/09/15 03:26:10;;;;;;;6.10;5.50;;;;;;;-148.82;100.00;60434.72;4947354;28;20676;-58
2022/09/15 03:28:39;;;;;;;6.70;6.10;;;;;;;-148.82;100.00;60434.72;4979462;28;20943;-57
2022/09/15 03:31:08;;;;;;;5.60;5.10;;;;;;;-148.82;100.00;60434.72;5006538;28;20866;-57
2022/09/15 03:33:36;;;;;;;6.10;5.60;;;;;;;-148.82;100.00;60434.72;4982383;28;20317;-57
2022/09/15 03:36:07;;;;;;;5.83;5.00;;;;;;;-148.82;100.00;60434.72;5006002;28;20262;-56
2022/09/15 03:38:35;;;;;;;5.87;5.23;;;;;;;-148.82;100.00;60434.72;5010267;28;20295;-54
2022/09/15 03:41:06;;;;;;;5.97;5.30;;;;;;;-148.82;100.00;60434.72;4956072;28;20978;-52
2022/09/15 03:43:35;;;;;;;6.23;5.13;;;;;;;-148.82;100.00;60434.72;5009566;28;20487;-55
2022/09/15 03:46:05;;;;;;;8.83;5.67;;;;;;;-148.82;100.00;60434.72;5008189;28;20279;-56
2022/09/15 03:48:34;;;;;;;5.50;5.00;;;;;;;-148.82;100.00;60434.72;4986676;28;20228;-56
2022/09/15 03:51:03;;;;;;;5.93;5.17;;;;;;;-148.82;100.00;60434.72;4981004;28;20201;-52
2022/09/15 03:53:33;;;;;;;5.50;5.00;;;;;;;-148.82;100.00;60434.72;5004776;28;20250;-56
2022/09/15 03:56:12;;;;;;;5.47;4.90;;;;;;;-148.82;100.00;60434.72;5008941;28;20318;-58
2022/09/15 03:58:41;;;;;;;8.10;5.43;;;;;;;-148.82;100.00;60434.72;4988047;28;20200;-51
2022/09/15 04:01:09;;;;;;;5.20;4.77;;;;;;;-148.82;100.00;60434.72;5010438;28;20666;-53
2022/09/15 04:03:37;;;;;;;5.83;5.20;;;;;;;-148.82;100.00;60434.72;4983587;28;21015;-52
2022/09/15 04:06:14;;;;;;;8.73;5.97;;;;;;;-148.82;100.00;60434.72;5006175;28;20211;-52
2022/09/15 04:08:44;;;;;;;5.77;5.27;;;;;;;-148.82;100.00;60434.72;5009851;28;20484;-57
2022/09/15 04:11:13;;;;;;;5.43;4.93;;;;;;;-148.82;100.00;60434.72;4985717;28;20774;-55
2022/09/15 04:13:43;;;;;;;7.03;5.77;;;;;;;-148.82;100.00;60434.72;4989049;28;20236;-50
2022/09/15 04:16:15;;;;;;;5.47;4.93;;;;;;;-148.82;100.00;60434.72;4983553;28;20311;-55
2022/09/15 04:18:44;;;;;;;6.20;5.60;;;;;;;-148.82;100.00;60434.72;5008602;28;20216;-52
2022/09/15 04:21:14;;;;;;;5.67;5.03;;;;;;;-148.82;100.00;60434.72;4979468;28;20204;-52
2022/09/15 04:23:45;;;;;;;7.33;5.03;;;;;;;-148.82;100.00;60434.72;4998446;28;20341;-54
2022/09/15 04:26:16;;;;;;;5.63;5.13;;;;;;;14.59;nan;95925.16;5010198;28;20266;-55
2022/09/15 04:28:45;;;;;;;5.97;5.40;;;;;;;14.84;nan;95935.47;4960641;28;20216;-55
2022/09/15 04:31:15;;;;;;;5.80;4.90;;;;;;;15.35;nan;95929.28;5007696;28;20548;-57
2022/09/15 04:33:44;;;;;;;6.00;5.50;;;;;;;15.43;nan;95931.53;4989609;28;20258;-54
2022/09/15 04:36:14;;;;;;;6.77;5.63;;;;;;;15.57;nan;95926.63;4985844;28;20653;-54
2022/09/15 04:38:45;;;;;;;7.97;5.47;;;;;;;15.60;nan;95928.81;4989261;28;20207;-55
2022/09/15 04:41:14;;;;;;;7.40;6.10;;;;;;;14.76;nan;95934.00;5012685;28;20204;-58
2022/09/15 04:43:43;;;;;;;8.33;5.90;;;;;;;14.75;nan;95937.72;4959647;28;20243;-53
2022/09/15 04:46:11;;;;;;;8.43;5.83;;;;;;;14.86;nan;95941.34;5010656;28;20208;-56
2022/09/15 04:48:40;;;;;;;10.73;6.47;;;;;;;14.72;nan;95938.19;4989654;28;20216;-56
2022/09/15 04:51:10;;;;;;;7.53;6.23;;;;;;;14.80;nan;95934.31;4986895;28;20247;-57
2022/09/15 04:53:39;;;;;;;8.03;6.27;;;;;;;14.84;nan;95931.97;4973065;28;20227;-54
2022/09/15 04:56:11;;;;;;;9.93;5.50;;;;;;;14.75;nan;95937.72;5007345;28;20200;-53
2022/09/15 04:58:40;;;;;;;6.43;5.83;;;;;;;14.86;nan;95929.88;4983023;28;20200;-55
2022/09/15 05:01:10;;;;;;;6.67;6.10;;;;;;;14.93;nan;95921.72;5001643;28;20219;-57
2022/09/15 05:03:39;;;;;;;6.60;6.00;;;;;;;14.85;nan;95923.75;5012171;28;20236;-55
2022/09/15 05:06:09;;;;;;;6.57;5.57;;;;;;;14.88;nan;95925.09;4993748;28;20908;-53
2022/09/15 05:08:38;;;;;;;7.47;6.00;;;;;;;14.82;nan;95934.06;4991416;28;20577;-56
2022/09/15 05:11:10;;;;;;;6.83;5.47;;;;;;;14.73;nan;95939.81;5011314;28;20489;-53
2022/09/15 05:13:39;;;;;;;7.23;6.20;;;;;;;14.81;nan;95932.47;5008177;28;20232;-56
2022/09/15 05:16:10;;;;;;;7.40;6.47;;;;;;;14.89;nan;95942.72;4963042;28;20209;-54
2022/09/15 05:18:39;;;;;;;6.63;6.03;;;;;;;14.97;nan;95936.19;5009395;28;20220;-54
2022/09/15 05:21:08;;;;;;;7.33;6.60;;;;;;;14.90;nan;95942.50;4991037;28;20247;-55
2022/09/15 05:23:37;;;;;;;7.93;7.20;;;;;;;14.98;nan;95948.47;5006026;28;20228;-56
2022/09/15 05:26:09;;;;;;;7.37;6.60;;;;;;;14.90;nan;95952.31;4999841;28;20216;-54
2022/09/15 05:28:37;;;;;;;7.43;6.77;;;;;;;14.90;nan;95950.47;5012015;28;20242;-54
2022/09/15 05:31:09;;;;;;;9.50;7.57;;;;;;;15.03;nan;95953.88;4963112;28;20809;-57
2022/09/15 05:33:38;;;;;;;8.43;7.60;;;;;;;15.03;nan;95946.69;4950650;28;20247;-52
2022/09/15 05:36:07;;;;;;;7.87;7.07;;;;;;;15.03;nan;95937.88;4991928;28;20580;-52
2022/09/15 05:38:35;;;;;;;11.73;8.43;;;;;;;15.13;nan;95942.56;5009824;28;20208;-54
2022/09/15 05:41:04;;;;;;;8.47;7.63;;;;;;;15.26;nan;95941.44;4999637;28;20205;-53
2022/09/15 05:43:35;;;;;;;8.57;7.77;;;;;;;15.18;nan;95940.78;5008426;28;20565;-54
2022/09/15 05:46:04;;;;;;;7.87;7.13;;;;;;;15.34;nan;95933.00;5007604;28;20205;-55
2022/09/15 05:48:32;;;;;;;8.63;7.53;;;;;;;15.34;nan;95928.47;4961865;28;20421;-56
2022/09/15 05:51:00;;;;;;;8.90;7.80;;;;;;;15.51;nan;95932.97;5008289;28;20217;-56
2022/09/15 05:53:29;;;;;;;8.37;7.60;;;;;;;15.49;nan;95937.75;5008669;28;20270;-54
2022/09/15 05:55:58;;;;;;;8.17;7.37;;;;;;;15.45;nan;95933.97;5009528;28;20204;-54
2022/09/15 05:58:27;;;;;;;9.17;8.07;;;;;;;15.40;nan;95940.03;4990153;28;20492;-50
2022/09/15 06:00:57;;;;;;;8.53;7.83;;;;;;;15.50;nan;95928.69;5011617;28;21033;-53
2022/09/15 06:03:25;;;;;;;8.37;7.67;;;;;;;15.65;nan;95929.94;5007179;28;20450;-55
2022/09/15 06:06:01;;;;;;;7.67;7.00;;;;;;;15.61;nan;95934.97;4958471;28;20239;-54
2022/09/15 06:08:33;;;;;;;7.83;7.10;;;;;;;15.84;nan;95931.25;5010643;28;21631;-57
2022/09/15 06:11:03;;;;;;;8.17;7.57;;;;;;;15.91;nan;95925.78;5006889;28;20208;-52
2022/09/15 06:13:31;;;;;;;8.30;7.37;;;;;;;15.94;nan;95919.94;4993048;28;20258;-52
2022/09/15 06:16:08;;;;;;;8.53;7.20;;;;;;;15.83;nan;95926.97;5012765;28;20448;-52
2022/09/15 06:18:37;;;;;;;8.60;6.57;;;;;;;15.71;nan;95931.59;5008980;28;20212;-52
2022/09/15 06:21:07;;;;;;;7.40;6.37;;;;;;;15.68;nan;95934.78;4959027;28;20388;-56
2022/09/15 06:23:36;;;;;;;6.37;5.80;;;;;;;15.70;nan;95941.50;5010949;28;20228;-53
2022/09/15 06:26:06;;;;;;;5.83;5.37;;;;;;;15.58;nan;95940.81;5010866;28;20208;-54
2022/09/15 06:28:34;;;;;;;5.27;4.87;;;;;;;15.61;nan;95935.75;4995253;28;20208;-58
2022/09/15 06:31:03;;;;;;;6.10;5.50;;;;;;;15.63;nan;95944.34;5007567;28;20781;-56
2022/09/15 06:33:32;;;;;;;5.83;5.33;;;;;;;15.70;nan;95938.00;5014532;28;20226;-54
2022/09/15 06:36:02;;;;;;;5.70;5.30;;;;;;;15.83;nan;95942.19;4960300;28;20235;-53
2022/09/15 06:38:30;;;;;;;4.77;4.47;;;;;;;15.81;nan;95938.94;5007653;28;20699;-57
2022/09/15 06:40:59;;;;;;;4.20;3.97;;;;;;;15.78;nan;95938.38;5012998;28;20227;-50
2022/09/15 06:43:27;;;;;;;4.70;4.30;;;;;;;15.70;nan;95946.00;5008401;28;20502;-51
2022/09/15 06:46:02;;;;;;;5.37;4.20;;;;;;;15.62;nan;95948.06;4993107;28;20432;-52
2022/09/15 06:48:32;;;;;;;4.80;4.40;;;;;;;15.66;nan;95947.56;5010845;28;20196;-53
2022/09/15 06:51:01;;;;;;;4.33;3.93;;;;;;;15.66;nan;95945.72;4959900;28;20708;-54
2022/09/15 06:53:30;;;;;;;4.80;4.30;;;;;;;15.70;nan;95951.34;5006371;28;20844;-49
2022/09/15 06:56:02;;;;;;;5.83;4.60;;;;;;;15.71;nan;95944.97;5008750;28;20239;-54
2022/09/15 06:58:30;;;;;;;4.27;3.87;;;;;;;15.78;nan;95945.59;5012337;28;20204;-56
2022/09/15 07:01:02;;;;;;;4.40;4.10;;;;;;;15.68;nan;95948.13;4991327;28;20583;-52
2022/09/15 07:03:32;;;;;;;4.30;4.00;;;;;;;15.76;nan;95958.41;5007994;28;20224;-55
2022/09/15 07:06:02;;;;;;;7.90;4.20;;;;;;;15.70;nan;95956.69;4982963;28;20692;-53
2022/09/15 07:08:30;;;;;;;6.83;4.50;;;;;;;15.68;nan;95964.97;4994089;28;20220;-56
2022/09/15 07:10:58;;;;;;;3.67;3.33;;;;;;;15.66;nan;95963.59;5008964;28;20212;-56
2022/09/15 07:13:27;;;;;;;4.13;3.73;;;;;;;15.67;nan;95967.88;5013606;28;20877;-55
2022/09/15 07:15:57;;;;;;;3.67;3.47;;;;;;;15.77;nan;95955.47;4995204;28;20224;-54
2022/09/15 07:18:26;;;;;;;7.53;3.53;;;;;;;15.86;nan;95966.53;5011373;28;20227;-54
2022/09/15 07:21:00;;;;;;;4.37;3.97;;;;;;;15.84;nan;95957.97;5002359;28;20629;-56
2022/09/15 07:23:29;;;;;;;4.37;3.93;;;;;;;15.91;nan;95966.63;4991304;28;20239;-54
2022/09/15 07:26:06;;;;;;;4.17;3.73;;;;;;;16.16;nan;95964.50;5009700;28;20207;-55
2022/09/15 07:28:34;;;;;;;5.77;4.20;;;;;;;16.14;nan;95977.31;5008212;28;20235;-55
2022/09/15 07:31:04;;;;;;;3.60;3.40;;;;;;;16.37;nan;95976.22;4991727;28;20744;-54
2022/09/15 07:33:33;;;;;;;4.77;3.73;;;;;;;16.26;nan;95972.63;4986462;28;20224;-56
2022/09/15 07:36:03;;;;;;;5.07;4.63;;;;;;;16.31;nan;95977.25;5007008;28;20220;-55
2022/09/15 07:38:33;;;;;;;4.33;3.50;;;;;;;16.32;nan;95989.53;4958395;28;20216;-57
2022/09/15 07:41:04;;;;;;;3.30;3.10;;;;;;;16.07;nan;95980.16;4949611;28;20212;-55
2022/09/15 07:43:33;;;;;;;2.87;2.77;;;;;;;16.09;nan;95980.72;5007810;28;20668;-54
2022/09/15 07:46:03;;;;;;;3.60;3.40;;;;;;;16.17;nan;95974.97;5010462;28;20616;-55
2022/09/15 07:48:31;;;;;;;3.60;3.40;;;;;;;16.06;nan;95981.22;4993988;28;20700;-55
2022/09/15 07:51:00;;;;;;;4.00;3.27;;;;;;;16.37;nan;95986.13;5012166;28;20212;-57
2022/09/15 07:53:30;;;;;;;3.70;3.33;;;;;;;16.38;nan;95983.19;4989410;28;20356;-58
2022/09/15 07:55:58;;;;;;;3.50;3.30;;;;;;;16.85;nan;95980.97;4963753;28;20731;-58
2022/09/15 07:58:26;;;;;;;3.33;3.13;;;;;;;16.77;nan;95985.72;5005376;28;20613;-59
2022/09/15 08:00:55;;;;;;;3.63;2.83;;;;;;;16.60;nan;95983.16;5007705;28;20222;-56
2022/09/15 08:03:23;;;;;;;3.67;2.90;;;;;;;16.59;nan;95988.78;5004749;28;20325;-60
2022/09/15 08:05:54;;;;;;;3.20;3.00;;;;;;;16.84;nan;95988.22;5008882;28;21622;-57
2022/09/15 08:08:22;;;;;;;4.07;2.87;;;;;;;16.89;nan;96000.84;4988768;28;20441;-57
2022/09/15 08:10:52;;;;;;;4.53;2.77;;;;;;;16.90;nan;95994.41;5014145;28;20223;-56
2022/09/15 08:13:20;;;;;;;2.50;2.40;;;;;;;17.10;nan;96001.84;4953882;28;21012;-58
2022/09/15 08:15:49;;;;;;;3.30;3.10;;;;;;;17.69;nan;95997.44;5009800;28;20561;-58
2022/09/15 08:18:17;;;;;;;2.90;2.80;;;;;;;18.06;nan;95995.78;5006058;28;20220;-54
2022/09/15 08:20:46;;;;;;;3.20;3.00;;;;;;;17.81;nan;96010.63;5011413;28;20215;-58
2022/09/15 08:23:14;;;;;;;3.67;2.47;;;;;;;17.49;nan;96006.16;4999822;28;20235;-54
2022/09/15 08:25:42;;;;;;;2.67;2.47;;;;;;;17.26;nan;96002.78;5006850;28;20208;-60
2022/09/15 08:28:12;;;;;;;3.13;2.10;;;;;;;17.03;nan;96009.25;4961618;28;20711;-55
2022/09/15 08:30:40;;;;;;;3.43;2.80;;;;;;;16.93;nan;96007.28;5004115;28;20231;-57
2022/09/15 08:33:09;;;;;;;2.77;2.33;;;;;;;17.03;nan;96020.78;5010601;28;20740;-58
2022/09/15 08:35:37;;;;;;;2.43;2.33;;;;;;;16.97;nan;96021.78;5007436;28;20453;-57
2022/09/15 08:38:06;;;;;;;3.50;2.80;;;;;;;17.01;nan;96020.22;5005222;28;20204;-59
2022/09/15 08:40:36;;;;;;;2.60;2.40;;;;;;;17.11;nan;96026.72;4996825;28;20460;-58
2022/09/15 08:43:09;;;;;;;3.50;2.80;;;;;;;16.88;nan;96024.09;4997428;28;20361;-58
2022/09/15 08:45:45;;;;;;;4.90;2.70;;;;;;;17.05;nan;96028.56;4990557;28;20218;-55
2022/09/15 08:48:15;;;;;;;2.80;2.53;;;;;;;17.14;nan;96039.59;5004495;28;20208;-55
2022/09/15 08:50:45;;;;;;;2.43;2.23;;;;;;;17.10;nan;96031.28;5010420;28;20235;-56
2022/09/15 08:53:16;;;;;;;2.63;2.50;;;;;;;16.89;nan;96025.69;5009898;28;20544;-55
2022/09/15 08:55:48;;;;;;;3.07;2.60;;;;;;;16.95;nan;96037.28;4993155;28;20232;-54
2022/09/15 08:58:19;;;;;;;2.57;2.37;;;;;;;16.70;nan;96033.28;4959740;28;20803;-57
2022/09/15 09:00:51;;;;;;;5.07;2.53;;;;;;;16.72;nan;96043.72;5008253;28;20205;-55
2022/09/15 09:03:32;;;;;;;20.83;3.73;;;;;;;16.64;nan;96043.09;5001095;28;20231;-53
2022/09/15 09:06:07;;;;;;;4.57;2.90;;;;;;;16.59;nan;96045.72;5010562;28;20205;-56
2022/09/15 09:08:47;;;;;;;3.43;2.77;;;;;;;16.47;nan;96045.84;5006914;28;20691;-54
2022/09/15 09:11:20;;;;;;;5.93;3.30;;;;;;;16.41;nan;96052.19;4987661;28;20220;-55
2022/09/15 09:13:53;;;;;;;14.77;3.00;;;;;;;16.30;nan;96051.28;4962056;28;20229;-55
2022/09/15 09:16:39;;;;;;;8.47;2.97;;;;;;;16.19;nan;96055.69;5006691;28;20322;-57
2022/09/15 09:19:33;;;;;;;7.33;3.27;;;;;;;16.06;nan;96054.16;5009878;28;20215;-55
2022/09/15 09:22:05;;;;;;;3.20;2.80;;;;;;;16.05;nan;96065.09;5011383;28;20208;-57
2022/09/15 09:24:37;;;;;;;4.00;3.13;;;;;;;15.88;nan;96070.47;4993911;28;20255;-57
2022/09/15 09:27:11;;;;;;;3.77;3.47;;;;;;;15.83;nan;96054.34;5008837;28;20238;-54
2022/09/15 09:29:40;;;;;;;3.53;3.33;;;;;;;15.99;nan;96066.91;4961798;28;20231;-54
2022/09/15 09:32:17;;;;;;;3.50;3.20;;;;;;;15.95;nan;96067.63;5008028;28;20232;-54
2022/09/15 09:34:56;;;;;;;3.63;3.43;;;;;;;15.97;nan;96070.88;5010828;28;20573;-56
2022/09/15 09:37:24;;;;;;;4.37;4.03;;;;;;;16.09;nan;96058.19;5008102;28;20258;-58
2022/09/15 09:39:52;;;;;;;3.63;3.30;;;;;;;15.93;nan;96057.22;5016472;28;20205;-57
2022/09/15 09:42:26;;;;;;;4.47;3.27;;;;;;;15.90;nan;96063.84;4989833;28;20464;-55
2022/09/15 09:44:54;;;;;;;3.63;3.33;;;;;;;15.92;nan;96060.94;4967185;28;20216;-54
2022/09/15 09:47:28;;;;;;;2.47;1.80;;;;;;;15.62;nan;96054.84;4987733;28;20594;-54
2022/09/15 09:49:57;;;;;;;2.20;1.77;;;;;;;15.40;nan;96049.44;4976879;28;20210;-55
2022/09/15 09:52:35;;;;;;;1.60;1.47;;;;;;;15.26;nan;96059.63;5012113;28;20233;-55
2022/09/15 09:55:20;;;;;;;1.37;1.30;;;;;;;15.12;nan;96059.13;4993517;28;20215;-58
2022/09/15 09:57:49;;;;;;;1.40;1.30;;;;;;;14.98;nan;96066.63;5008719;28;20896;-55
2022/09/15 10:00:32;;;;;;;1.70;1.60;;;;;;;14.88;nan;96069.09;5012355;28;20208;-58
2022/09/15 10:03:10;;;;;;;1.50;1.50;;;;;;;14.93;nan;96063.84;5011586;28;20592;-54
2022/09/15 10:05:38;;;;;;;2.63;1.87;;;;;;;14.99;nan;96056.75;4957688;28;20551;-57
2022/09/15 10:08:06;;;;;;;2.03;1.93;;;;;;;15.01;nan;96058.16;5011628;28;20204;-54
2022/09/15 10:10:34;;;;;;;1.57;1.40;;;;;;;15.09;nan;96064.13;4988596;28;20223;-57
2022/09/15 10:13:03;;;;;;;1.73;1.63;;;;;;;15.24;nan;96056.38;5011556;28;20225;-55
2022/09/15 10:15:33;;;;;;;1.53;1.50;;;;;;;15.36;nan;96064.31;5008178;28;20207;-54
2022/09/15 10:18:04;;;;;;;1.20;1.20;;;;;;;15.61;nan;96065.78;5013293;28;20235;-57
2022/09/15 10:20:34;;;;;;;1.53;1.33;;;;;;;15.87;nan;96069.63;4955235;28;20219;-54
2022/09/15 10:23:05;;;;;;;1.37;1.27;;;;;;;15.97;nan;96078.88;5010621;28;20267;-56
2022/09/15 10:25:36;;;;;;;1.30;1.30;;;;;;;15.93;nan;96070.56;4992673;28;20218;-55
2022/09/15 10:28:25;;;;;;;1.50;1.33;;;;;;;16.05;nan;96057.06;5007449;28;20688;-54
2022/09/15 10:31:12;;;;;;;1.20;1.20;;;;;;;16.24;nan;96064.81;5011167;28;20241;-58
2022/09/15 10:33:43;;;;;;;1.10;1.10;;;;;;;16.29;nan;96080.91;4957385;28;21321;-53
2022/09/15 10:36:14;;;;;;;0.90;0.90;;;;;;;16.41;nan;96072.78;5007437;28;20656;-54
2022/09/15 10:38:45;;;;;;;1.00;0.97;;;;;;;16.58;nan;96083.41;5006335;28;20867;-54
2022/09/15 10:41:25;;;;;;;0.90;0.90;;;;;;;16.61;nan;96082.91;4989836;28;20219;-57
2022/09/15 10:44:14;;;;;;;1.03;1.03;;;;;;;16.78;nan;96083.63;5013120;28;20527;-56
2022/09/15 10:46:48;;;;;;;0.70;0.70;;;;;;;16.64;nan;96087.75;5009923;28;20783;-53
2022/09/15 10:49:32;;;;;;;1.40;0.80;;;;;;;16.62;nan;96069.28;5007566;28;20204;-55
2022/09/15 10:52:12;;;;;;;0.70;0.70;;;;;;;16.37;nan;96075.13;5009680;28;20210;-58
2022/09/15 10:54:51;;;;;;;1.70;1.00;;;;;;;16.34;nan;96083.66;5006147;28;20361;-58
2022/09/15 10:57:33;;;;;;;0.70;0.70;;;;;;;16.20;nan;96092.03;4997728;28;20584;-56
2022/09/15 11:00:04;;;;;;;0.67;0.67;;;;;;;16.13;nan;96091.41;5008337;28;20200;-59
2022/09/15 11:03:02;;;;;;;0.63;0.63;;;;;;;16.04;nan;96093.69;5008470;28;20229;-57
2022/09/15 11:05:41;;;;;;;1.13;1.13;;;;;;;16.01;nan;96083.50;4971729;28;20211;-58
2022/09/15 11:08:40;;;;;;;1.07;0.97;;;;;;;16.05;nan;96081.13;5008808;28;20215;-58
2022/09/15 11:11:16;;;;;;;1.10;1.10;;;;;;;16.32;nan;96069.72;5008041;28;20204;-59
2022/09/15 11:13:57;;;;;;;1.00;1.00;;;;;;;16.51;nan;96086.25;4988211;28;20243;-56
2022/09/15 11:16:39;;;;;;;1.10;0.97;;;;;;;16.60;nan;96086.66;5011026;28;20232;-56
2022/09/15 11:19:21;;;;;;;1.00;1.00;;;;;;;16.76;nan;96099.13;5012282;28;20215;-61
2022/09/15 11:21:53;;;;;;;1.17;1.17;;;;;;;16.92;nan;96099.31;4960476;28;20247;-59
2022/09/15 11:24:26;;;;;;;1.23;1.20;;;;;;;17.00;nan;96085.50;5008677;28;20201;-56
2022/09/15 11:26:58;;;;;;;1.17;1.00;;;;;;;16.83;nan;96088.25;5010762;28;20716;-55
2022/09/15 11:29:29;;;;;;;0.97;0.97;;;;;;;16.59;nan;96071.66;4990255;28;20216;-57
2022/09/15 11:32:03;;;;;;;1.20;1.10;;;;;;;16.82;nan;96067.06;5010246;28;20236;-55
2022/09/15 11:34:34;;;;;;;1.07;1.07;;;;;;;16.74;nan;96071.81;5007801;28;20207;-57
2022/09/15 11:37:08;;;;;;;1.13;1.13;;;;;;;16.94;nan;96070.44;4960730;28;20251;-59
2022/09/15 11:39:41;;;;;;;1.60;1.50;;;;;;;16.96;nan;96068.31;5001965;28;20311;-58
2022/09/15 11:42:11;;;;;;;1.30;1.30;;;;;;;17.07;nan;96067.38;5011120;28;20247;-58
2022/09/15 11:44:42;;;;;;;1.20;1.10;;;;;;;17.23;nan;96072.84;4990074;28;20715;-56
2022/09/15 11:47:22;;;;;;;2.10;1.43;;;;;;;17.50;nan;96067.50;5005794;28;20584;-56
2022/09/15 11:49:55;;;;;;;1.73;1.63;;;;;;;17.69;nan;96069.75;5007835;28;20406;-58
2022/09/15 11:52:46;;;;;;;1.67;1.43;;;;;;;18.05;nan;96055.81;4990381;28;20224;-56
2022/09/15 11:55:28;;;;;;;2.50;2.03;;;;;;;18.26;nan;96047.88;4946618;28;20216;-53
2022/09/15 11:58:05;;;;;;;2.33;1.80;;;;;;;18.50;nan;96043.69;4990068;28;20872;-57
2022/09/15 12:00:34;;;;;;;2.53;2.33;;;;;;;18.72;nan;96050.72;5012090;28;20219;-56
2022/09/15 12:03:12;;;;;;;2.13;1.27;;;;;;;18.74;nan;96048.56;4989560;28;20228;-54